createdAt,value
2019-04-14T00:00:51.478Z,22.39
2019-04-14T00:01:52.237Z,22.39
2019-04-14T00:02:51.227Z,22.39
2019-04-14T00:03:52.217Z,22.30
2019-04-14T00:04:51.068Z,23.00
2019-04-14T00:05:51.705Z,22.19
2019-04-14T00:06:51.047Z,22.39
2019-04-14T00:07:51.753Z,22.30
2019-04-14T00:08:52.132Z,22.19
2019-04-14T00:09:51.969Z,22.80
2019-04-14T00:10:51.001Z,22.09
2019-04-14T00:11:50.991Z,22.39
2019-04-14T00:12:51.426Z,22.19
2019-04-14T00:13:50.968Z,22.50
2019-04-14T00:14:51.368Z,22.30
2019-04-14T00:15:53.162Z,22.09
2019-04-14T00:16:51.097Z,22.50
2019-04-14T00:17:50.925Z,22.69
2019-04-14T00:18:51.274Z,22.19
2019-04-14T00:19:50.907Z,22.30
2019-04-14T00:20:51.236Z,22.39
2019-04-14T00:21:52.146Z,22.09
2019-04-14T00:22:51.224Z,22.60
2019-04-14T00:23:50.857Z,22.60
2019-04-14T00:24:51.134Z,23.10
2019-04-14T00:25:50.835Z,22.30
2019-04-14T00:26:51.076Z,23.10
2019-04-14T00:27:52.102Z,22.19
2019-04-14T00:28:51.270Z,23.10
2019-04-14T00:29:50.790Z,22.50
2019-04-14T00:30:51.253Z,22.50
2019-04-14T00:31:52.692Z,22.60
2019-04-14T00:32:50.973Z,22.60
2019-04-14T00:33:52.003Z,22.30
2019-04-14T00:34:50.973Z,22.50
2019-04-14T00:35:51.607Z,22.60
2019-04-14T00:36:50.718Z,22.69
2019-04-14T00:37:51.131Z,22.60
2019-04-14T00:38:50.721Z,22.09
2019-04-14T00:39:51.160Z,22.50
2019-04-14T00:40:51.559Z,22.09
2019-04-14T00:41:55.183Z,22.00
2019-04-14T00:42:51.648Z,22.60
2019-04-14T00:43:50.657Z,22.60
2019-04-14T00:44:51.831Z,22.50
2019-04-14T00:45:53.578Z,22.50
2019-04-14T00:46:51.760Z,22.61
2019-04-14T00:47:59.733Z,22.71
2019-04-14T00:48:51.818Z,22.39
2019-04-14T00:49:50.907Z,22.50
2019-04-14T00:50:51.673Z,23.10
2019-04-14T00:51:50.773Z,22.50
2019-04-14T00:52:50.551Z,23.10
2019-04-14T00:53:51.322Z,22.50
2019-04-14T00:54:50.513Z,22.50
2019-04-14T00:55:51.096Z,22.60
2019-04-14T00:56:50.510Z,22.69
2019-04-14T00:57:50.888Z,22.69
2019-04-14T00:58:51.756Z,22.50
2019-04-14T00:59:50.854Z,22.50
2019-04-14T01:00:51.713Z,22.89
2019-04-14T01:01:50.522Z,22.60
2019-04-14T01:02:51.590Z,22.60
2019-04-14T01:03:50.565Z,22.30
2019-04-14T01:04:51.373Z,22.60
2019-04-14T01:05:50.434Z,22.50
2019-04-14T01:06:51.179Z,22.69
2019-04-14T01:07:50.370Z,21.91
2019-04-14T01:08:51.120Z,22.50
2019-04-14T01:09:51.044Z,22.50
2019-04-14T01:10:50.338Z,22.50
2019-04-14T01:11:51.004Z,22.50
2019-04-14T01:12:50.316Z,22.11
2019-04-14T01:13:50.835Z,22.61
2019-04-14T01:14:51.665Z,22.69
2019-04-14T01:15:58.726Z,22.89
2019-04-14T01:16:51.718Z,22.71
2019-04-14T01:17:50.656Z,22.89
2019-04-14T01:18:51.480Z,22.60
2019-04-14T01:19:50.611Z,22.61
2019-04-14T01:20:51.334Z,22.60
2019-04-14T01:21:50.345Z,22.89
2019-04-14T01:22:50.988Z,22.61
2019-04-14T01:23:50.237Z,22.61
2019-04-14T01:24:51.083Z,23.00
2019-04-14T01:25:50.170Z,22.89
2019-04-14T01:26:50.690Z,22.50
2019-04-14T01:27:50.150Z,22.89
2019-04-14T01:28:50.455Z,22.69
2019-04-14T01:29:50.128Z,23.00
2019-04-14T01:30:50.179Z,22.71
2019-04-14T01:31:50.105Z,22.61
2019-04-14T01:32:50.189Z,22.41
2019-04-14T01:33:51.146Z,22.89
2019-04-14T01:34:52.289Z,22.89
2019-04-14T01:35:51.006Z,22.61
2019-04-14T01:36:50.049Z,23.00
2019-04-14T01:37:50.724Z,22.71
2019-04-14T01:38:51.278Z,22.89
2019-04-14T01:39:50.227Z,22.71
2019-04-14T01:40:51.021Z,23.00
2019-04-14T01:41:50.028Z,22.91
2019-04-14T01:42:50.625Z,22.89
2019-04-14T01:43:49.972Z,22.50
2019-04-14T01:44:50.345Z,22.39
2019-04-14T01:46:02.390Z,22.50
2019-04-14T01:46:52.079Z,22.71
2019-04-14T01:47:51.089Z,22.81
2019-04-14T01:48:49.918Z,23.00
2019-04-14T01:49:50.855Z,23.11
2019-04-14T01:50:49.925Z,22.41
2019-04-14T01:51:50.693Z,22.61
2019-04-14T01:52:50.155Z,22.50
2019-04-14T01:53:50.978Z,22.61
2019-04-14T01:54:49.849Z,22.41
2019-04-14T01:55:50.530Z,22.41
2019-04-14T01:56:49.861Z,23.11
2019-04-14T01:57:50.313Z,22.41
2019-04-14T01:58:49.807Z,22.31
2019-04-14T01:59:50.324Z,22.50
2019-04-14T02:00:51.183Z,22.41
2019-04-14T02:01:49.979Z,23.11
2019-04-14T02:02:50.826Z,22.31
2019-04-14T02:03:49.938Z,22.61
2019-04-14T02:04:50.708Z,22.61
2019-04-14T02:05:49.727Z,22.41
2019-04-14T02:06:50.543Z,22.41
2019-04-14T02:07:49.705Z,22.41
2019-04-14T02:08:50.110Z,22.41
2019-04-14T02:09:51.003Z,22.41
2019-04-14T02:10:49.983Z,22.31
2019-04-14T02:11:50.934Z,22.41
2019-04-14T02:12:49.679Z,22.50
2019-04-14T02:13:50.865Z,22.20
2019-04-14T02:14:49.636Z,22.61
2019-04-14T02:15:50.637Z,22.20
2019-04-14T02:16:54.099Z,22.31
2019-04-14T02:17:50.594Z,22.50
2019-04-14T02:18:52.224Z,22.50
2019-04-14T02:19:50.278Z,22.50
2019-04-14T02:20:49.569Z,22.20
2019-04-14T02:21:49.935Z,22.50
2019-04-14T02:22:50.577Z,22.41
2019-04-14T02:23:49.844Z,22.20
2019-04-14T02:24:50.348Z,22.61
2019-04-14T02:25:49.528Z,22.31
2019-04-14T02:26:50.297Z,22.61
2019-04-14T02:27:49.495Z,22.50
2019-04-14T02:28:50.428Z,22.71
2019-04-14T02:29:49.553Z,22.69
2019-04-14T02:31:00.160Z,22.71
2019-04-14T02:32:17.296Z,22.61
2019-04-14T02:33:37.741Z,22.71
2019-04-14T02:36:27.519Z,22.91
2019-04-14T02:37:19.637Z,22.71
2019-04-14T02:38:23.421Z,22.71
2019-04-14T02:39:22.282Z,22.71
2019-04-14T02:40:21.729Z,22.91
2019-04-14T02:41:21.579Z,22.91
2019-04-14T02:42:28.024Z,22.71
2019-04-14T02:43:26.998Z,23.21
2019-04-14T02:45:19.085Z,22.91
2019-04-14T02:46:20.160Z,22.71
2019-04-14T02:47:38.553Z,22.61
2019-04-14T02:48:25.825Z,22.91
2019-04-14T02:49:14.372Z,22.91
2019-04-14T02:50:12.180Z,22.81
2019-04-14T02:51:19.403Z,23.11
2019-04-14T02:53:39.399Z,23.00
2019-04-14T02:55:10.689Z,22.71
2019-04-14T02:56:28.065Z,22.81
2019-04-14T02:57:17.806Z,22.91
2019-04-14T02:58:20.540Z,22.61
2019-04-14T02:59:13.978Z,22.71
2019-04-14T03:00:24.143Z,23.21
2019-04-14T03:03:21.613Z,23.00
2019-04-14T03:04:18.817Z,22.61
2019-04-14T03:05:37.566Z,23.21
2019-04-14T03:06:14.714Z,22.71
2019-04-14T03:07:21.896Z,23.41
2019-04-14T03:08:17.000Z,23.21
2019-04-14T03:09:24.323Z,23.21
2019-04-14T03:10:18.519Z,22.61
2019-04-14T03:11:17.144Z,22.31
2019-04-14T03:12:16.722Z,22.81
2019-04-14T03:14:15.585Z,23.11
2019-04-14T03:15:17.008Z,23.00
2019-04-14T03:17:21.326Z,23.21
2019-04-14T03:19:14.708Z,22.31
2019-04-14T03:20:20.430Z,23.21
2019-04-14T03:21:24.603Z,23.21
2019-04-14T03:23:19.072Z,23.41
2019-04-14T03:25:05.731Z,23.21
2019-04-14T03:26:15.483Z,23.41
2019-04-14T03:27:22.733Z,23.41
2019-04-14T03:28:17.438Z,23.41
2019-04-14T03:29:19.263Z,23.41
2019-04-14T03:30:34.055Z,23.21
2019-04-14T03:31:51.810Z,23.41
2019-04-14T03:32:42.621Z,23.31
2019-04-14T03:33:36.171Z,23.31
2019-04-14T03:34:34.136Z,23.11
2019-04-14T03:38:18.275Z,23.41
2019-04-14T03:39:15.334Z,23.41
2019-04-14T03:40:18.589Z,23.11
2019-04-14T03:42:19.900Z,23.00
2019-04-14T03:43:22.674Z,23.61
2019-04-14T03:44:25.771Z,23.21
2019-04-14T03:45:28.211Z,23.00
2019-04-14T03:46:23.492Z,23.21
2019-04-14T03:49:17.488Z,23.00
2019-04-14T03:50:15.072Z,23.31
2019-04-14T03:51:21.339Z,23.00
2019-04-14T03:52:19.495Z,23.31
2019-04-14T03:54:11.868Z,23.31
2019-04-14T03:55:09.453Z,23.11
2019-04-14T03:55:55.717Z,23.31
2019-04-14T03:56:49.499Z,23.00
2019-04-14T03:57:49.590Z,23.00
2019-04-14T03:58:48.700Z,23.31
2019-04-14T03:59:48.464Z,23.11
2019-04-14T04:00:49.179Z,23.11
2019-04-14T04:01:48.450Z,23.31
2019-04-14T04:02:48.811Z,23.31
2019-04-14T04:03:48.421Z,23.11
2019-04-14T04:04:48.856Z,23.31
2019-04-14T04:05:48.398Z,23.11
2019-04-14T04:06:48.651Z,23.00
2019-04-14T04:07:49.516Z,22.91
2019-04-14T04:08:48.586Z,23.11
2019-04-14T04:09:49.623Z,23.31
2019-04-14T04:10:48.695Z,23.00
2019-04-14T04:11:48.356Z,23.31
2019-04-14T04:12:48.671Z,23.11
2019-04-14T04:13:48.341Z,23.31
2019-04-14T04:14:48.584Z,23.00
2019-04-14T04:15:48.289Z,23.11
2019-04-14T04:16:48.405Z,23.00
2019-04-14T04:17:49.351Z,22.91
2019-04-14T04:18:57.862Z,23.11
2019-04-14T04:19:49.264Z,23.11
2019-04-14T04:20:48.231Z,23.11
2019-04-14T04:21:48.808Z,23.41
2019-04-14T04:22:48.211Z,23.11
2019-04-14T04:23:48.965Z,22.91
2019-04-14T04:24:48.192Z,23.00
2019-04-14T04:25:48.659Z,23.00
2019-04-14T04:26:48.167Z,23.41
2019-04-14T04:27:48.393Z,23.00
2019-04-14T04:28:48.144Z,23.11
2019-04-14T04:29:48.456Z,23.11
2019-04-14T04:30:49.360Z,23.00
2019-04-14T04:31:48.336Z,23.02
2019-04-14T04:32:49.282Z,23.21
2019-04-14T04:33:48.096Z,23.21
2019-04-14T04:34:49.082Z,23.21
2019-04-14T04:35:48.066Z,22.91
2019-04-14T04:36:48.783Z,23.11
2019-04-14T04:37:48.072Z,22.91
2019-04-14T04:38:48.768Z,23.11
2019-04-14T04:39:48.022Z,22.91
2019-04-14T04:40:48.567Z,23.11
2019-04-14T04:41:49.327Z,23.21
2019-04-14T04:42:48.404Z,23.11
2019-04-14T04:43:47.985Z,22.91
2019-04-14T04:44:48.787Z,23.00
2019-04-14T04:45:47.966Z,23.31
2019-04-14T04:46:48.407Z,23.31
2019-04-14T04:47:49.103Z,23.21
2019-04-14T04:49:00.031Z,23.21
2019-04-14T04:49:49.099Z,23.31
2019-04-14T04:50:47.905Z,23.31
2019-04-14T04:51:48.663Z,23.31
2019-04-14T04:52:47.877Z,23.11
2019-04-14T04:53:48.368Z,23.32
2019-04-14T04:54:47.858Z,23.42
2019-04-14T04:55:48.124Z,23.31
2019-04-14T04:56:47.833Z,23.22
2019-04-14T04:57:48.151Z,22.71
2019-04-14T04:58:48.064Z,22.92
2019-04-14T04:59:47.801Z,23.31
2019-04-14T05:00:51.014Z,23.42
2019-04-14T05:01:47.786Z,23.00
2019-04-14T05:02:48.466Z,23.41
2019-04-14T05:03:47.756Z,23.32
2019-04-14T05:04:48.363Z,23.52
2019-04-14T05:05:47.734Z,23.41
2019-04-14T05:06:48.327Z,23.50
2019-04-14T05:07:49.002Z,22.81
2019-04-14T05:08:48.063Z,23.32
2019-04-14T05:09:47.695Z,22.81
2019-04-14T05:10:48.136Z,23.41
2019-04-14T05:11:50.828Z,22.62
2019-04-14T05:12:47.950Z,22.91
2019-04-14T05:13:48.786Z,22.91
2019-04-14T05:14:48.006Z,22.81
2019-04-14T05:15:48.795Z,22.81
2019-04-14T05:16:48.545Z,22.81
2019-04-14T05:17:47.604Z,22.81
2019-04-14T05:18:48.477Z,22.81
2019-04-14T05:19:47.643Z,22.62
2019-04-14T05:20:48.676Z,22.62
2019-04-14T05:21:47.556Z,22.91
2019-04-14T05:22:48.574Z,22.92
2019-04-14T05:23:47.535Z,22.81
2019-04-14T05:24:48.549Z,23.00
2019-04-14T05:25:47.588Z,23.02
2019-04-14T05:26:48.478Z,22.72
2019-04-14T05:27:47.492Z,22.81
2019-04-14T05:28:48.464Z,22.91
2019-04-14T05:29:47.468Z,23.02
2019-04-14T05:30:48.251Z,23.00
2019-04-14T05:31:47.455Z,22.81
2019-04-14T05:32:47.939Z,23.12
2019-04-14T05:33:47.424Z,22.92
2019-04-14T05:34:47.924Z,23.12
2019-04-14T05:35:47.400Z,23.12
2019-04-14T05:36:47.849Z,23.12
2019-04-14T05:37:48.578Z,22.81
2019-04-14T05:38:47.499Z,23.72
2019-04-14T05:39:48.422Z,23.12
2019-04-14T05:40:47.542Z,23.00
2019-04-14T05:41:57.055Z,23.21
2019-04-14T05:42:49.360Z,23.41
2019-04-14T05:43:53.762Z,23.11
2019-04-14T05:44:49.333Z,23.71
2019-04-14T05:45:48.002Z,23.22
2019-04-14T05:46:47.280Z,23.11
2019-04-14T05:47:47.916Z,23.32
2019-04-14T05:48:47.285Z,23.52
2019-04-14T05:49:51.287Z,23.32
2019-04-14T05:50:49.035Z,23.21
2019-04-14T05:51:48.113Z,23.22
2019-04-14T05:52:47.231Z,23.22
2019-04-14T05:53:48.069Z,23.22
2019-04-14T05:54:47.199Z,23.11
2019-04-14T05:55:48.119Z,23.12
2019-04-14T05:56:47.187Z,23.22
2019-04-14T05:57:48.106Z,23.92
2019-04-14T05:58:47.215Z,23.52
2019-04-14T05:59:48.339Z,23.62
2019-04-14T06:00:47.156Z,23.62
2019-04-14T06:01:47.115Z,23.50
2019-04-14T06:02:48.394Z,23.22
2019-04-14T06:03:47.529Z,23.22
2019-04-14T06:04:48.180Z,23.22
2019-04-14T06:05:47.069Z,23.32
2019-04-14T06:06:47.065Z,24.02
2019-04-14T06:07:47.047Z,23.22
2019-04-14T06:08:47.038Z,23.72
2019-04-14T06:09:47.026Z,23.71
2019-04-14T06:10:47.014Z,23.32
2019-04-14T06:11:47.003Z,23.22
2019-04-14T06:12:47.000Z,23.22
2019-04-14T06:13:47.033Z,23.92
2019-04-14T06:14:46.970Z,23.72
2019-04-14T06:15:46.959Z,23.31
2019-04-14T06:16:46.952Z,23.31
2019-04-14T06:17:46.936Z,23.92
2019-04-14T06:18:46.947Z,23.72
2019-04-14T06:19:46.918Z,23.72
2019-04-14T06:20:46.903Z,23.92
2019-04-14T06:21:46.893Z,23.92
2019-04-14T06:22:46.881Z,23.52
2019-04-14T06:23:46.870Z,23.82
2019-04-14T06:24:46.892Z,23.52
2019-04-14T06:25:46.850Z,23.72
2019-04-14T06:26:46.836Z,23.72
2019-04-14T06:27:46.831Z,24.02
2019-04-14T06:28:46.816Z,23.91
2019-04-14T06:29:46.803Z,23.72
2019-04-14T06:30:46.817Z,23.50
2019-04-14T06:31:46.780Z,23.52
2019-04-14T06:32:46.771Z,23.72
2019-04-14T06:33:46.761Z,23.82
2019-04-14T06:34:46.748Z,23.62
2019-04-14T06:35:46.738Z,23.72
2019-04-14T06:36:46.759Z,23.92
2019-04-14T06:37:46.715Z,23.72
2019-04-14T06:38:46.722Z,23.42
2019-04-14T06:39:46.692Z,23.72
2019-04-14T06:40:46.681Z,23.91
2019-04-14T06:41:46.673Z,23.72
2019-04-14T06:42:46.682Z,23.50
2019-04-14T06:43:49.015Z,23.72
2019-04-14T06:44:46.638Z,23.72
2019-04-14T06:45:46.627Z,23.92
2019-04-14T06:46:46.615Z,23.92
2019-04-14T06:47:46.604Z,23.52
2019-04-14T06:48:46.600Z,23.52
2019-04-14T06:49:49.231Z,23.72
2019-04-14T06:50:46.685Z,23.72
2019-04-14T06:51:46.560Z,23.92
2019-04-14T06:52:46.551Z,23.92
2019-04-14T06:53:46.537Z,23.72
2019-04-14T06:54:46.533Z,23.92
2019-04-14T06:55:46.514Z,23.61
2019-04-14T06:56:46.504Z,23.92
2019-04-14T06:57:46.492Z,23.92
2019-04-14T06:58:46.481Z,23.72
2019-04-14T06:59:46.470Z,24.02
2019-04-14T07:00:46.489Z,24.01
2019-04-14T07:01:46.452Z,23.92
2019-04-14T07:02:48.020Z,24.02
2019-04-14T07:03:46.426Z,24.02
2019-04-14T07:04:46.417Z,24.12
2019-04-14T07:05:46.404Z,24.02
2019-04-14T07:06:46.402Z,23.92
2019-04-14T07:07:56.511Z,23.72
2019-04-14T07:08:47.377Z,24.01
2019-04-14T07:09:46.362Z,24.02
2019-04-14T07:10:46.349Z,23.62
2019-04-14T07:11:46.338Z,23.72
2019-04-14T07:12:46.357Z,23.92
2019-04-14T07:13:48.167Z,24.02
2019-04-14T07:14:46.305Z,23.82
2019-04-14T07:15:46.294Z,24.12
2019-04-14T07:16:46.282Z,23.92
2019-04-14T07:17:46.279Z,23.92
2019-04-14T07:18:46.269Z,24.02
2019-04-14T07:19:46.252Z,23.62
2019-04-14T07:20:46.255Z,23.72
2019-04-14T07:21:46.228Z,23.92
2019-04-14T07:22:46.219Z,23.80
2019-04-14T07:23:47.336Z,23.92
2019-04-14T07:24:46.200Z,24.02
2019-04-14T07:25:46.183Z,24.22
2019-04-14T07:26:46.170Z,24.22
2019-04-14T07:27:46.160Z,23.92
2019-04-14T07:28:56.175Z,24.22
2019-04-14T07:29:47.157Z,24.12
2019-04-14T07:30:46.126Z,23.82
2019-04-14T07:31:46.118Z,23.71
2019-04-14T07:32:46.105Z,23.52
2019-04-14T07:33:46.110Z,24.12
2019-04-14T07:34:46.097Z,23.82
2019-04-14T07:35:46.104Z,23.72
2019-04-14T07:36:46.061Z,23.92
2019-04-14T07:37:46.049Z,24.12
2019-04-14T07:38:46.039Z,23.82
2019-04-14T07:39:46.027Z,23.92
2019-04-14T07:40:46.016Z,23.42
2019-04-14T07:41:46.037Z,23.71
2019-04-14T07:42:46.059Z,23.52
2019-04-14T07:43:45.983Z,23.50
2019-04-14T07:44:45.972Z,23.42
2019-04-14T07:45:45.961Z,23.92
2019-04-14T07:46:45.951Z,23.72
2019-04-14T07:47:45.959Z,23.52
2019-04-14T07:48:45.928Z,23.52
2019-04-14T07:49:45.916Z,24.22
2019-04-14T07:50:45.904Z,23.61
2019-04-14T07:51:45.895Z,23.62
2019-04-14T07:52:45.883Z,23.82
2019-04-14T07:53:45.898Z,23.72
2019-04-14T07:54:45.863Z,23.62
2019-04-14T07:55:45.918Z,23.62
2019-04-14T07:56:45.839Z,23.61
2019-04-14T07:57:45.828Z,23.62
2019-04-14T07:58:45.816Z,23.80
2019-04-14T07:59:45.835Z,23.82
2019-04-14T08:00:45.799Z,23.82
2019-04-14T08:01:45.784Z,23.52
2019-04-14T08:02:45.772Z,23.32
2019-04-14T08:03:45.761Z,24.02
2019-04-14T08:04:45.751Z,23.82
2019-04-14T08:05:45.775Z,23.62
2019-04-14T08:06:45.730Z,24.02
2019-04-14T08:07:45.723Z,23.31
2019-04-14T08:08:45.708Z,23.82
2019-04-14T08:09:45.695Z,23.82
2019-04-14T08:10:45.684Z,23.82
2019-04-14T08:11:45.701Z,24.02
2019-04-14T08:12:45.661Z,23.82
2019-04-14T08:13:45.651Z,23.82
2019-04-14T08:14:45.676Z,23.82
2019-04-14T08:15:45.633Z,24.02
2019-04-14T08:16:45.617Z,24.01
2019-04-14T08:17:45.639Z,23.72
2019-04-14T08:18:45.606Z,23.52
2019-04-14T08:19:45.584Z,23.82
2019-04-14T08:20:45.576Z,24.02
2019-04-14T08:21:45.563Z,23.82
2019-04-14T08:22:45.555Z,23.42
2019-04-14T08:23:45.551Z,23.32
2019-04-14T08:24:45.531Z,23.22
2019-04-14T08:25:45.519Z,23.92
2019-04-14T08:26:45.506Z,23.82
2019-04-14T08:27:45.496Z,23.80
2019-04-14T08:28:45.484Z,24.02
2019-04-14T08:29:45.492Z,24.01
2019-04-14T08:30:45.463Z,23.92
2019-04-14T08:31:45.452Z,23.82
2019-04-14T08:32:45.440Z,23.82
2019-04-14T08:33:45.430Z,23.82
2019-04-14T08:34:45.417Z,23.72
2019-04-14T08:35:45.436Z,23.72
2019-04-14T08:36:45.395Z,24.01
2019-04-14T08:37:45.385Z,24.01
2019-04-14T08:38:45.374Z,24.12
2019-04-14T08:39:45.363Z,23.82
2019-04-14T08:40:45.352Z,24.01
2019-04-14T08:41:45.369Z,24.11
2019-04-14T08:42:45.329Z,23.71
2019-04-14T08:43:45.319Z,24.02
2019-04-14T08:44:45.307Z,23.42
2019-04-14T08:45:45.296Z,24.01
2019-04-14T08:46:45.286Z,24.02
2019-04-14T08:47:45.295Z,23.72
2019-04-14T08:48:45.262Z,23.92
2019-04-14T08:49:45.253Z,23.41
2019-04-14T08:50:45.241Z,23.92
2019-04-14T08:51:45.233Z,23.92
2019-04-14T08:52:45.229Z,23.42
2019-04-14T08:53:45.238Z,23.42
2019-04-14T08:54:45.229Z,23.61
2019-04-14T08:55:45.186Z,23.31
2019-04-14T08:56:45.174Z,24.01
2019-04-14T08:57:45.162Z,23.72
2019-04-14T08:58:45.152Z,23.71
2019-04-14T08:59:45.149Z,23.82
2019-04-14T09:00:45.129Z,24.02
2019-04-14T09:01:45.118Z,23.80
2019-04-14T09:02:45.108Z,23.52
2019-04-14T09:03:45.097Z,23.31
2019-04-14T09:04:45.086Z,23.82
2019-04-14T09:05:45.083Z,24.01
2019-04-14T09:06:45.063Z,23.52
2019-04-14T09:07:45.051Z,23.80
2019-04-14T09:08:45.041Z,23.72
2019-04-14T09:09:45.036Z,23.32
2019-04-14T09:10:45.019Z,23.80
2019-04-14T09:11:45.015Z,23.22
2019-04-14T09:12:44.997Z,23.42
2019-04-14T09:13:44.987Z,23.92
2019-04-14T09:14:56.353Z,23.92
2019-04-14T09:15:45.962Z,23.62
2019-04-14T09:16:44.956Z,23.82
2019-04-14T09:17:44.977Z,24.02
2019-04-14T09:18:44.930Z,23.32
2019-04-14T09:19:44.920Z,23.42
2019-04-14T09:20:52.135Z,24.12
2019-04-14T09:21:45.899Z,23.82
2019-04-14T09:22:44.886Z,23.41
2019-04-14T09:23:44.945Z,23.62
2019-04-14T09:24:44.864Z,23.32
2019-04-14T09:25:44.854Z,23.71
2019-04-14T09:26:44.843Z,24.11
2019-04-14T09:27:44.835Z,23.32
2019-04-14T09:28:44.822Z,24.02
2019-04-14T09:29:44.818Z,23.31
2019-04-14T09:30:44.798Z,24.02
2019-04-14T09:31:44.787Z,24.12
2019-04-14T09:32:44.776Z,24.01
2019-04-14T09:33:44.766Z,23.72
2019-04-14T09:34:44.753Z,23.92
2019-04-14T09:35:44.773Z,24.11
2019-04-14T09:36:44.736Z,24.11
2019-04-14T09:37:44.724Z,23.82
2019-04-14T09:38:44.709Z,23.61
2019-04-14T09:39:44.698Z,24.11
2019-04-14T09:40:44.687Z,23.61
2019-04-14T09:41:44.684Z,23.80
2019-04-14T09:42:44.664Z,24.11
2019-04-14T09:43:44.654Z,24.11
2019-04-14T09:44:44.647Z,23.62
2019-04-14T09:45:44.636Z,23.72
2019-04-14T09:46:44.628Z,23.61
2019-04-14T09:47:44.629Z,23.61
2019-04-14T09:48:44.598Z,23.31
2019-04-14T09:49:44.588Z,23.82
2019-04-14T09:50:44.575Z,23.80
2019-04-14T09:51:44.565Z,23.72
2019-04-14T09:52:44.553Z,23.80
2019-04-14T09:53:44.564Z,24.51
2019-04-14T09:54:44.533Z,23.71
2019-04-14T09:55:44.521Z,23.91
2019-04-14T09:56:44.510Z,24.51
2019-04-14T09:57:44.501Z,23.91
2019-04-14T09:58:44.487Z,24.51
2019-04-14T09:59:44.505Z,24.51
2019-04-14T10:00:44.467Z,24.51
2019-04-14T10:01:44.456Z,24.32
2019-04-14T10:02:44.443Z,23.91
2019-04-14T10:03:44.431Z,24.52
2019-04-14T10:04:44.423Z,24.51
2019-04-14T10:05:44.441Z,24.51
2019-04-14T10:06:44.398Z,23.62
2019-04-14T10:07:44.387Z,24.52
2019-04-14T10:08:44.379Z,24.22
2019-04-14T10:09:44.364Z,23.82
2019-04-14T10:10:44.359Z,24.30
2019-04-14T10:11:49.274Z,24.62
2019-04-14T10:12:45.331Z,24.52
2019-04-14T10:13:44.321Z,24.30
2019-04-14T10:14:44.309Z,24.41
2019-04-14T10:15:44.299Z,24.22
2019-04-14T10:16:44.290Z,24.71
2019-04-14T10:17:44.297Z,23.91
2019-04-14T10:18:44.274Z,23.92
2019-04-14T10:19:44.255Z,24.62
2019-04-14T10:20:44.245Z,24.32
2019-04-14T10:21:44.241Z,24.41
2019-04-14T10:22:44.225Z,24.51
2019-04-14T10:23:44.237Z,24.51
2019-04-14T10:24:44.201Z,24.22
2019-04-14T10:25:44.189Z,24.30
2019-04-14T10:26:44.177Z,24.32
2019-04-14T10:27:44.165Z,24.02
2019-04-14T10:28:44.154Z,24.22
2019-04-14T10:29:44.204Z,24.01
2019-04-14T10:30:44.132Z,24.22
2019-04-14T10:31:44.121Z,24.02
2019-04-14T10:32:44.113Z,24.02
2019-04-14T10:33:44.104Z,24.02
2019-04-14T10:34:44.089Z,24.02
2019-04-14T10:35:44.083Z,24.22
2019-04-14T10:36:44.066Z,24.22
2019-04-14T10:37:44.057Z,24.12
2019-04-14T10:38:44.044Z,24.41
2019-04-14T10:39:44.034Z,24.02
2019-04-14T10:40:44.023Z,24.12
2019-04-14T10:41:44.018Z,24.12
2019-04-14T10:42:44.000Z,24.42
2019-04-14T10:43:43.990Z,24.11
2019-04-14T10:44:44.016Z,24.02
2019-04-14T10:45:43.967Z,24.32
2019-04-14T10:46:43.955Z,24.41
2019-04-14T10:47:43.969Z,24.21
2019-04-14T10:48:43.935Z,24.42
2019-04-14T10:49:43.924Z,24.12
2019-04-14T10:50:43.911Z,24.12
2019-04-14T10:51:43.901Z,24.42
2019-04-14T10:52:43.892Z,24.22
2019-04-14T10:53:43.885Z,24.42
2019-04-14T10:54:43.870Z,24.32
2019-04-14T10:55:43.856Z,24.42
2019-04-14T10:56:43.845Z,24.12
2019-04-14T10:57:43.835Z,24.22
2019-04-14T10:58:43.823Z,24.22
2019-04-14T10:59:43.840Z,24.42
2019-04-14T11:00:43.811Z,24.42
2019-04-14T11:01:43.791Z,24.42
2019-04-14T11:02:43.778Z,24.22
2019-04-14T11:03:43.767Z,24.42
2019-04-14T11:04:43.768Z,24.42
2019-04-14T11:05:43.776Z,24.41
2019-04-14T11:06:43.735Z,24.12
2019-04-14T11:07:43.724Z,24.41
2019-04-14T11:08:43.716Z,24.30
2019-04-14T11:09:43.701Z,24.02
2019-04-14T11:10:43.692Z,24.22
2019-04-14T11:11:43.685Z,24.22
2019-04-14T11:12:43.668Z,24.02
2019-04-14T11:13:43.657Z,24.12
2019-04-14T11:14:43.645Z,23.91
2019-04-14T11:15:43.671Z,23.92
2019-04-14T11:16:43.624Z,24.32
2019-04-14T11:17:43.620Z,24.12
2019-04-14T11:18:43.601Z,24.22
2019-04-14T11:19:43.590Z,23.92
2019-04-14T11:20:43.579Z,24.42
2019-04-14T11:21:43.568Z,24.22
2019-04-14T11:22:43.557Z,24.30
2019-04-14T11:23:43.567Z,24.42
2019-04-14T11:24:43.534Z,24.11
2019-04-14T11:25:43.524Z,24.02
2019-04-14T11:26:43.513Z,24.12
2019-04-14T11:27:43.501Z,24.21
2019-04-14T11:28:43.490Z,24.22
2019-04-14T11:29:43.489Z,24.32
2019-04-14T11:30:43.467Z,24.12
2019-04-14T11:31:43.457Z,24.32
2019-04-14T11:32:43.445Z,23.80
2019-04-14T11:33:43.473Z,24.01
2019-04-14T11:34:43.423Z,23.92
2019-04-14T11:35:43.435Z,23.82
2019-04-14T11:36:43.402Z,23.72
2019-04-14T11:37:43.391Z,23.72
2019-04-14T11:38:43.384Z,24.32
2019-04-14T11:39:43.381Z,24.32
2019-04-14T11:40:43.367Z,23.92
2019-04-14T11:41:43.362Z,23.92
2019-04-14T11:42:52.135Z,23.91
2019-04-14T11:43:44.326Z,24.21
2019-04-14T11:44:43.315Z,24.32
2019-04-14T11:45:43.317Z,23.91
2019-04-14T11:46:43.292Z,24.01
2019-04-14T11:47:43.301Z,24.01
2019-04-14T11:48:43.268Z,23.80
2019-04-14T11:49:43.284Z,23.92
2019-04-14T11:50:43.253Z,24.01
2019-04-14T11:51:54.598Z,24.01
2019-04-14T11:52:44.253Z,24.32
2019-04-14T11:53:43.229Z,24.02
2019-04-14T11:54:43.202Z,24.32
2019-04-14T11:55:43.191Z,24.32
2019-04-14T11:56:43.181Z,24.01
2019-04-14T11:57:43.168Z,23.71
2019-04-14T11:58:43.164Z,24.01
2019-04-14T11:59:43.146Z,24.01
2019-04-14T12:00:43.137Z,23.80
2019-04-14T12:01:43.139Z,23.91
2019-04-14T12:02:43.114Z,23.71
2019-04-14T12:03:43.103Z,23.91
2019-04-14T12:04:43.122Z,24.01
2019-04-14T12:05:43.083Z,23.71
2019-04-14T12:06:43.070Z,24.01
2019-04-14T12:07:43.058Z,23.71
2019-04-14T12:08:45.526Z,24.01
2019-04-14T12:09:43.036Z,24.32
2019-04-14T12:10:43.057Z,24.30
2019-04-14T12:11:43.013Z,23.80
2019-04-14T12:12:43.003Z,24.51
2019-04-14T12:13:42.993Z,24.01
2019-04-14T12:14:42.984Z,23.80
2019-04-14T12:15:42.970Z,24.01
2019-04-14T12:16:43.026Z,24.01
2019-04-14T12:17:42.950Z,23.80
2019-04-14T12:18:42.937Z,24.11
2019-04-14T12:19:42.926Z,23.71
2019-04-14T12:20:42.918Z,23.80
2019-04-14T12:21:42.904Z,24.01
2019-04-14T12:22:42.912Z,23.91
2019-04-14T12:23:42.881Z,23.80
2019-04-14T12:24:42.877Z,23.91
2019-04-14T12:25:42.860Z,24.11
2019-04-14T12:26:42.848Z,23.91
2019-04-14T12:27:42.836Z,24.11
2019-04-14T12:28:42.913Z,24.01
2019-04-14T12:29:43.339Z,23.80
2019-04-14T12:30:42.804Z,24.11
2019-04-14T12:31:44.010Z,24.41
2019-04-14T12:32:42.781Z,23.80
2019-04-14T12:33:42.778Z,23.80
2019-04-14T12:34:42.779Z,23.80
2019-04-14T12:35:42.755Z,24.01
2019-04-14T12:36:42.737Z,23.91
2019-04-14T12:37:42.800Z,24.01
2019-04-14T12:38:42.714Z,24.21
2019-04-14T12:39:42.705Z,24.11
2019-04-14T12:40:42.699Z,24.11
2019-04-14T12:41:42.688Z,23.71
2019-04-14T12:42:42.696Z,24.30
2019-04-14T12:43:42.660Z,23.80
2019-04-14T12:44:42.648Z,23.80
2019-04-14T12:45:42.638Z,23.91
2019-04-14T12:46:42.659Z,23.71
2019-04-14T12:47:42.616Z,23.80
2019-04-14T12:48:42.604Z,24.01
2019-04-14T12:49:42.592Z,24.11
2019-04-14T12:50:42.582Z,24.01
2019-04-14T12:51:42.576Z,23.91
2019-04-14T12:52:42.589Z,23.71
2019-04-14T12:53:42.549Z,23.91
2019-04-14T12:54:42.536Z,24.01
2019-04-14T12:55:42.528Z,23.80
2019-04-14T12:56:43.582Z,24.41
2019-04-14T12:57:42.505Z,23.80
2019-04-14T12:58:42.500Z,24.30
2019-04-14T12:59:42.482Z,24.11
2019-04-14T13:00:42.472Z,24.01
2019-04-14T13:01:42.460Z,24.01
2019-04-14T13:02:42.448Z,24.01
2019-04-14T13:03:42.441Z,23.91
2019-04-14T13:04:42.437Z,23.80
2019-04-14T13:05:42.415Z,24.11
2019-04-14T13:06:42.408Z,23.71
2019-04-14T13:07:42.403Z,23.99
2019-04-14T13:08:42.386Z,23.71
2019-04-14T13:09:42.372Z,24.30
2019-04-14T13:10:42.368Z,24.19
2019-04-14T13:11:42.351Z,24.21